Terminal Aerodrome Forecast
Issued by NWS

Home | Current Version | Previous Version | Text Only | Print | Product List | Glossary On
Versions: 1 2 3 4 5 6 7 8 9 10 11 12 13 14 15 16 17 18 19 20 21 22 23
000
FTUS41 KILN 290218 AAA
TAFLCK
TAF AMD
KLCK 290218Z 2902/2924 VRB03KT P6SM BKN035 BKN150
     FM290800 00000KT 4SM BR BKN150
      TEMPO 2909/2913 1SM BR BKN008
     FM291300 VRB03KT P6SM BKN025
     FM291600 19004KT P6SM VCTS BKN040CB BKN150=

USA.gov is the U.S. government's official web portal to all federal, state and local government web resources and services.